createdAt,value
2017-03-26T00:01:07.617Z,5.40
2017-03-26T00:04:01.849Z,5.39
2017-03-26T00:06:56.286Z,5.37
2017-03-26T00:09:50.401Z,5.37
2017-03-26T00:15:38.767Z,5.29
2017-03-26T00:18:32.880Z,5.25
2017-03-26T00:21:27.072Z,5.21
2017-03-26T00:24:21.050Z,5.17
2017-03-26T00:27:15.222Z,5.12
2017-03-26T00:30:09.230Z,5.11
2017-03-26T00:33:03.335Z,5.09
2017-03-26T00:35:57.330Z,5.05
2017-03-26T00:41:45.230Z,4.98
2017-03-26T00:44:39.165Z,4.92
2017-03-26T00:50:27.065Z,4.85
2017-03-26T00:56:15.124Z,4.76
2017-03-26T00:59:09.181Z,4.72
2017-03-26T01:02:03.053Z,4.68
2017-03-26T01:04:56.955Z,4.63
2017-03-26T01:07:50.840Z,4.57
2017-03-26T01:10:45.021Z,4.51
2017-03-26T01:13:38.670Z,4.48
2017-03-26T01:16:32.555Z,4.43
2017-03-26T01:19:26.361Z,4.39
2017-03-26T01:22:20.819Z,4.35
2017-03-26T01:25:14.778Z,4.32
2017-03-26T01:28:08.691Z,4.31
2017-03-26T01:31:02.442Z,4.28
2017-03-26T01:33:56.368Z,4.26
2017-03-26T01:39:44.337Z,4.23
2017-03-26T01:42:38.249Z,4.20
2017-03-26T01:45:32.079Z,4.17
2017-03-26T01:48:26.018Z,4.13
2017-03-26T01:54:13.813Z,4.08
2017-03-26T01:57:07.603Z,4.05
2017-03-26T02:00:01.408Z,4.01
2017-03-26T02:02:55.265Z,3.96
2017-03-26T02:05:49.072Z,3.93
2017-03-26T02:08:42.777Z,3.88
2017-03-26T02:11:36.628Z,3.84
2017-03-26T02:14:30.529Z,3.78
2017-03-26T02:20:18.078Z,3.67
2017-03-26T02:23:11.872Z,3.63
2017-03-26T02:26:05.617Z,3.61
2017-03-26T02:28:59.567Z,3.57
2017-03-26T02:31:53.489Z,3.53
2017-03-26T02:34:47.178Z,3.49
2017-03-26T02:40:34.686Z,3.42
2017-03-26T02:43:28.605Z,3.39
2017-03-26T02:46:22.453Z,3.38
2017-03-26T02:52:10.145Z,3.41
2017-03-26T02:57:57.739Z,3.32
2017-03-26T03:00:51.630Z,3.27
2017-03-26T03:03:45.512Z,3.23
2017-03-26T03:06:39.176Z,3.21
2017-03-26T03:12:27.060Z,3.17
2017-03-26T03:15:20.889Z,3.12
2017-03-26T03:18:14.748Z,3.10
2017-03-26T03:21:08.552Z,3.07
2017-03-26T03:24:02.322Z,3.04
2017-03-26T03:32:43.779Z,2.97
2017-03-26T03:35:37.518Z,2.95
2017-03-26T03:38:31.308Z,2.92
2017-03-26T03:44:18.832Z,2.89
2017-03-26T03:50:06.281Z,2.84
2017-03-26T03:53:00.094Z,2.82
2017-03-26T03:55:53.851Z,2.78
2017-03-26T03:58:47.559Z,2.76
2017-03-26T04:01:41.351Z,2.74
2017-03-26T04:04:35.447Z,2.71
2017-03-26T04:07:29.122Z,2.69
2017-03-26T04:10:23.284Z,2.66
2017-03-26T04:16:10.663Z,2.62
2017-03-26T04:21:58.303Z,2.59
2017-03-26T04:24:52.128Z,2.58
2017-03-26T04:27:45.895Z,2.57
2017-03-26T04:30:39.663Z,2.54
2017-03-26T04:36:27.388Z,2.52
2017-03-26T04:39:21.162Z,2.53
2017-03-26T04:42:14.957Z,2.51
2017-03-26T04:45:08.701Z,2.51
2017-03-26T04:50:55.975Z,2.54
2017-03-26T04:53:49.565Z,2.56
2017-03-26T04:56:43.422Z,2.57
2017-03-26T04:59:36.826Z,2.57
2017-03-26T05:02:30.387Z,2.58
2017-03-26T05:05:24.014Z,2.62
2017-03-26T05:08:17.693Z,2.68
2017-03-26T05:11:11.334Z,2.73
2017-03-26T05:14:06.009Z,2.80
2017-03-26T05:19:52.473Z,2.96
2017-03-26T05:22:46.165Z,3.04
2017-03-26T05:25:39.838Z,3.08
2017-03-26T05:31:27.252Z,3.37
2017-03-26T05:34:21.024Z,3.51
2017-03-26T05:37:14.772Z,3.69
2017-03-26T05:40:08.576Z,3.91
2017-03-26T05:43:02.363Z,4.18
2017-03-26T05:51:43.980Z,5.41
2017-03-26T05:54:37.930Z,5.53
2017-03-26T06:03:19.745Z,6.11
2017-03-26T06:06:14.654Z,6.45
2017-03-26T06:12:01.934Z,7.09
2017-03-26T06:14:55.967Z,7.17
2017-03-26T06:17:50.082Z,7.26
2017-03-26T06:23:38.243Z,7.91
2017-03-26T06:26:32.363Z,8.12
2017-03-26T06:29:26.526Z,8.64
2017-03-26T06:32:20.672Z,9.90
2017-03-26T06:38:09.562Z,13.11
2017-03-26T06:41:04.165Z,14.31
2017-03-26T06:43:59.013Z,15.83
2017-03-26T06:46:53.727Z,16.88
2017-03-26T06:49:48.646Z,17.82
2017-03-26T06:52:43.569Z,18.32
2017-03-26T06:55:38.483Z,18.77
2017-03-26T06:58:33.328Z,19.04
2017-03-26T07:01:28.235Z,19.40
2017-03-26T07:04:23.065Z,19.39
2017-03-26T07:07:17.888Z,19.65
2017-03-26T07:13:07.748Z,19.64
2017-03-26T07:16:02.643Z,19.54
2017-03-26T07:18:57.527Z,19.26
2017-03-26T07:21:52.407Z,19.04
2017-03-26T07:24:47.428Z,19.41
2017-03-26T07:27:42.472Z,19.45
2017-03-26T07:30:37.523Z,19.97
2017-03-26T07:33:32.726Z,20.34
2017-03-26T07:36:28.002Z,20.64
2017-03-26T07:39:23.336Z,20.94
2017-03-26T07:42:18.653Z,21.28
2017-03-26T07:45:14.114Z,21.39
2017-03-26T07:48:09.496Z,21.72
2017-03-26T07:51:05.227Z,21.93
2017-03-26T07:54:00.632Z,22.15
2017-03-26T07:56:56.045Z,22.56
2017-03-26T07:59:51.424Z,22.84
2017-03-26T08:02:46.898Z,23.06
2017-03-26T08:05:42.491Z,23.33
2017-03-26T08:08:37.928Z,23.81
2017-03-26T08:11:33.304Z,24.13
2017-03-26T08:17:24.062Z,24.71
2017-03-26T08:20:19.389Z,24.87
2017-03-26T08:23:14.635Z,25.18
2017-03-26T08:26:09.992Z,25.55
2017-03-26T08:29:05.281Z,25.78
2017-03-26T08:32:00.696Z,25.88
2017-03-26T08:34:56.325Z,26.09
2017-03-26T08:37:51.706Z,25.71
2017-03-26T08:40:47.167Z,26.13
2017-03-26T08:43:42.759Z,26.33
2017-03-26T08:46:38.137Z,26.44
2017-03-26T08:52:28.884Z,25.90
2017-03-26T08:55:24.330Z,25.49
2017-03-26T08:58:19.363Z,24.80
2017-03-26T09:01:14.538Z,25.27
2017-03-26T09:04:10.059Z,25.91
2017-03-26T09:07:05.629Z,26.20
2017-03-26T09:10:01.002Z,26.19
2017-03-26T09:12:56.383Z,25.79
2017-03-26T09:15:51.933Z,26.38
2017-03-26T09:18:47.589Z,26.59
2017-03-26T09:21:43.186Z,26.48
2017-03-26T09:24:38.788Z,27.29
2017-03-26T09:27:34.579Z,27.65
2017-03-26T09:30:30.396Z,28.37
2017-03-26T09:33:26.015Z,29.45
2017-03-26T09:39:17.167Z,31.18
2017-03-26T09:42:12.618Z,31.82
2017-03-26T09:45:07.899Z,32.17
2017-03-26T09:48:02.851Z,32.25
2017-03-26T09:50:57.947Z,32.06
2017-03-26T09:53:53.079Z,31.55
2017-03-26T09:56:48.382Z,30.57
2017-03-26T09:59:43.619Z,29.23
2017-03-26T10:02:38.969Z,28.39
2017-03-26T10:05:34.568Z,28.56
2017-03-26T10:08:30.017Z,29.67
2017-03-26T10:11:25.277Z,30.76
2017-03-26T10:14:20.684Z,30.34
2017-03-26T10:17:16.466Z,30.46
2017-03-26T10:20:11.998Z,31.97
2017-03-26T10:23:07.756Z,33.31
2017-03-26T10:26:02.963Z,33.54
2017-03-26T10:28:57.590Z,31.87
2017-03-26T10:31:52.029Z,28.90
2017-03-26T10:34:46.407Z,26.47
2017-03-26T10:37:40.789Z,24.58
2017-03-26T10:40:35.265Z,23.03
2017-03-26T10:43:29.721Z,21.73
2017-03-26T10:46:24.167Z,20.73
2017-03-26T10:49:18.509Z,20.08
2017-03-26T10:52:13.100Z,19.51
2017-03-26T10:58:02.301Z,18.49
2017-03-26T11:00:56.813Z,18.23
2017-03-26T11:03:51.458Z,18.08
2017-03-26T11:06:45.894Z,17.58
2017-03-26T11:09:40.540Z,17.23
2017-03-26T11:12:35.145Z,17.01
2017-03-26T11:15:29.581Z,16.74
2017-03-26T11:18:24.074Z,16.45
2017-03-26T11:21:18.672Z,16.19
2017-03-26T11:24:13.634Z,16.14
2017-03-26T11:27:08.159Z,16.11
2017-03-26T11:30:02.808Z,16.00
2017-03-26T11:35:51.915Z,15.51
2017-03-26T11:38:46.425Z,15.34
2017-03-26T11:41:40.848Z,15.10
2017-03-26T11:50:24.350Z,15.05
2017-03-26T11:53:18.871Z,15.07
2017-03-26T11:56:13.460Z,14.96
2017-03-26T11:59:07.961Z,14.83
2017-03-26T12:02:02.536Z,14.71
2017-03-26T12:04:56.929Z,14.76
2017-03-26T12:07:51.508Z,14.91
2017-03-26T12:13:40.621Z,15.13
2017-03-26T12:19:29.803Z,15.18
2017-03-26T12:22:24.411Z,15.21
2017-03-26T12:25:18.933Z,15.21
2017-03-26T12:28:13.481Z,15.17
2017-03-26T12:31:08.047Z,15.20
2017-03-26T12:34:02.469Z,15.23
2017-03-26T12:36:57.032Z,15.28
2017-03-26T12:39:51.567Z,15.15
2017-03-26T12:45:40.645Z,15.15
2017-03-26T12:48:35.194Z,15.18
2017-03-26T12:51:29.730Z,15.16
2017-03-26T12:54:24.654Z,15.14
2017-03-26T12:57:19.180Z,15.10
2017-03-26T13:00:13.789Z,15.13
2017-03-26T13:03:08.374Z,15.16
2017-03-26T13:06:02.933Z,15.22
2017-03-26T13:08:57.488Z,15.24
2017-03-26T13:11:51.945Z,15.24
2017-03-26T13:14:46.543Z,15.18
2017-03-26T13:17:41.008Z,15.16
2017-03-26T13:20:35.610Z,15.26
2017-03-26T13:23:30.328Z,15.37
2017-03-26T13:26:24.817Z,15.32
2017-03-26T13:29:19.372Z,15.22
2017-03-26T13:32:13.997Z,15.23
2017-03-26T13:35:08.647Z,15.29
2017-03-26T13:38:03.229Z,15.28
2017-03-26T13:40:57.779Z,15.28
2017-03-26T13:43:52.391Z,15.29
2017-03-26T13:46:46.969Z,15.43
2017-03-26T13:49:41.604Z,15.55
2017-03-26T13:52:36.355Z,15.67
2017-03-26T13:55:31.054Z,15.76
2017-03-26T13:58:25.641Z,15.82
2017-03-26T14:01:20.229Z,15.86
2017-03-26T14:04:14.696Z,15.86
2017-03-26T14:07:09.385Z,15.92
2017-03-26T14:10:04.137Z,16.04
2017-03-26T14:12:58.758Z,16.15
2017-03-26T14:15:53.750Z,16.16
2017-03-26T14:18:48.320Z,16.15
2017-03-26T14:21:42.997Z,16.19
2017-03-26T14:24:37.623Z,16.07
2017-03-26T14:27:32.382Z,16.03
2017-03-26T14:30:27.120Z,16.00
2017-03-26T14:33:21.740Z,15.95
2017-03-26T14:36:16.365Z,15.92
2017-03-26T14:39:11.024Z,15.89
2017-03-26T14:42:05.730Z,15.75
2017-03-26T14:45:00.316Z,15.56
2017-03-26T14:47:54.927Z,15.47
2017-03-26T14:50:49.514Z,15.40
2017-03-26T14:53:44.051Z,15.28
2017-03-26T14:56:38.717Z,15.09
2017-03-26T14:59:33.110Z,14.99
2017-03-26T15:02:27.530Z,14.97
2017-03-26T15:05:22.029Z,14.94
2017-03-26T15:08:16.626Z,14.83
2017-03-26T15:11:11.139Z,14.80
2017-03-26T15:14:05.699Z,14.75
2017-03-26T15:17:00.343Z,14.66
2017-03-26T15:19:54.903Z,14.57
2017-03-26T15:22:49.406Z,14.56
2017-03-26T15:25:43.952Z,14.57
2017-03-26T15:28:38.517Z,14.57
2017-03-26T15:31:33.022Z,14.51
2017-03-26T15:34:27.499Z,14.46
2017-03-26T15:37:22.083Z,14.43
2017-03-26T15:40:16.447Z,14.45
2017-03-26T15:43:11.008Z,14.47
2017-03-26T15:46:05.498Z,14.47
2017-03-26T15:49:00.019Z,14.45
2017-03-26T15:51:54.571Z,14.44
2017-03-26T15:54:49.093Z,14.40
2017-03-26T15:57:43.770Z,14.34
2017-03-26T16:00:38.272Z,14.29
2017-03-26T16:03:32.758Z,14.26
2017-03-26T16:06:27.320Z,14.21
2017-03-26T16:09:21.875Z,14.16
2017-03-26T16:12:16.449Z,14.10
2017-03-26T16:15:10.906Z,14.04
2017-03-26T16:18:05.415Z,13.99
2017-03-26T16:20:59.900Z,13.93
2017-03-26T16:23:54.426Z,13.88
2017-03-26T16:26:48.958Z,13.83
2017-03-26T16:29:43.515Z,13.78
2017-03-26T16:32:38.246Z,13.74
2017-03-26T16:35:32.643Z,13.69
2017-03-26T16:38:27.124Z,13.62
2017-03-26T16:41:21.646Z,13.53
2017-03-26T16:44:16.072Z,13.43
2017-03-26T16:47:11.037Z,13.30
2017-03-26T16:50:05.593Z,13.19
2017-03-26T16:53:00.109Z,13.09
2017-03-26T16:55:54.634Z,12.99
2017-03-26T16:58:49.069Z,12.90
2017-03-26T17:01:43.516Z,12.82
2017-03-26T17:04:37.947Z,12.71
2017-03-26T17:07:32.393Z,12.61
2017-03-26T17:10:26.813Z,12.49
2017-03-26T17:13:21.302Z,12.37
2017-03-26T17:19:10.207Z,12.12
2017-03-26T17:22:04.667Z,11.99
2017-03-26T17:24:59.061Z,11.84
2017-03-26T17:27:53.407Z,11.70
2017-03-26T17:30:47.796Z,11.62
2017-03-26T17:33:42.112Z,11.55
2017-03-26T17:39:30.894Z,11.38
2017-03-26T17:45:19.772Z,11.27
2017-03-26T17:48:14.140Z,11.21
2017-03-26T17:54:03.219Z,11.04
2017-03-26T17:56:57.480Z,10.98
2017-03-26T17:59:51.815Z,10.90
2017-03-26T18:02:46.049Z,10.82
2017-03-26T18:05:40.288Z,10.76
2017-03-26T18:08:34.662Z,10.68
2017-03-26T18:14:23.207Z,10.53
2017-03-26T18:20:11.703Z,10.38
2017-03-26T18:23:06.028Z,10.31
2017-03-26T18:26:00.266Z,10.25
2017-03-26T18:28:54.485Z,10.19
2017-03-26T18:31:48.595Z,10.14
2017-03-26T18:34:42.789Z,10.07
2017-03-26T18:37:36.884Z,9.99
2017-03-26T18:40:31.053Z,9.94
2017-03-26T18:43:25.056Z,9.88
2017-03-26T18:46:19.320Z,9.84
2017-03-26T18:49:13.516Z,9.80
2017-03-26T18:52:07.705Z,9.73
2017-03-26T18:55:01.827Z,9.69
2017-03-26T19:00:50.256Z,9.64
2017-03-26T19:03:44.546Z,9.62
2017-03-26T19:06:38.759Z,9.58
2017-03-26T19:15:21.326Z,9.39
2017-03-26T19:18:15.653Z,9.32
2017-03-26T19:21:09.747Z,9.26
2017-03-26T19:24:03.894Z,9.19
2017-03-26T19:26:58.570Z,9.14
2017-03-26T19:29:52.565Z,9.08
2017-03-26T19:32:46.895Z,9.04
2017-03-26T19:35:40.958Z,8.99
2017-03-26T19:38:35.299Z,8.94
2017-03-26T19:44:23.563Z,8.86
2017-03-26T19:47:17.735Z,8.82
2017-03-26T19:50:11.900Z,8.75
2017-03-26T19:53:05.904Z,8.68
2017-03-26T19:56:00.049Z,8.60
2017-03-26T19:58:54.176Z,8.54
2017-03-26T20:01:48.213Z,8.48
2017-03-26T20:10:30.754Z,8.31
2017-03-26T20:16:19.016Z,8.17
2017-03-26T20:19:13.033Z,8.11
2017-03-26T20:22:07.040Z,8.07
2017-03-26T20:25:01.241Z,8.03
2017-03-26T20:27:55.340Z,7.99
2017-03-26T20:30:49.351Z,7.94
2017-03-26T20:33:43.261Z,7.90
2017-03-26T20:36:37.275Z,7.85
2017-03-26T20:39:31.253Z,7.81
2017-03-26T20:42:25.213Z,7.77
2017-03-26T20:45:19.262Z,7.74
2017-03-26T20:48:13.320Z,7.70
2017-03-26T20:51:07.326Z,7.66
2017-03-26T20:54:01.421Z,7.62
2017-03-26T20:56:55.464Z,7.58
2017-03-26T20:59:49.505Z,7.55
2017-03-26T21:02:43.452Z,7.54
2017-03-26T21:05:37.660Z,7.50
2017-03-26T21:08:31.767Z,7.44
2017-03-26T21:14:19.815Z,7.36
2017-03-26T21:17:13.853Z,7.31
2017-03-26T21:20:07.873Z,7.27
2017-03-26T21:23:01.971Z,7.23
2017-03-26T21:25:55.789Z,7.20
2017-03-26T21:28:49.865Z,7.16
2017-03-26T21:31:43.792Z,7.13
2017-03-26T21:34:37.866Z,7.10
2017-03-26T21:40:25.813Z,7.02
2017-03-26T21:43:19.830Z,6.97
2017-03-26T21:46:13.753Z,6.95
2017-03-26T21:52:02.146Z,6.88
2017-03-26T21:54:56.185Z,6.85
2017-03-26T21:57:50.083Z,6.82
2017-03-26T22:00:44.029Z,6.79
2017-03-26T22:03:38.125Z,6.78
2017-03-26T22:06:32.108Z,6.76
2017-03-26T22:09:26.163Z,6.75
2017-03-26T22:12:20.165Z,6.73
2017-03-26T22:18:08.388Z,6.66
2017-03-26T22:23:56.392Z,6.63
2017-03-26T22:26:50.439Z,6.63
2017-03-26T22:29:44.588Z,6.62
2017-03-26T22:32:38.613Z,6.61
2017-03-26T22:35:33.734Z,6.58
2017-03-26T22:38:26.788Z,6.53
2017-03-26T22:44:14.851Z,6.48
2017-03-26T22:47:08.922Z,6.44
2017-03-26T22:50:02.985Z,6.40
2017-03-26T22:52:57.003Z,6.37
2017-03-26T22:55:50.994Z,6.35
2017-03-26T22:58:45.010Z,6.33
2017-03-26T23:01:39.220Z,6.32
2017-03-26T23:04:33.142Z,6.29
2017-03-26T23:07:27.786Z,6.25
2017-03-26T23:10:21.880Z,6.22
2017-03-26T23:13:15.921Z,6.18
2017-03-26T23:16:09.978Z,6.15
2017-03-26T23:19:04.084Z,6.12
2017-03-26T23:21:58.107Z,6.08
2017-03-26T23:24:52.149Z,6.04
2017-03-26T23:27:46.262Z,6.01
2017-03-26T23:30:40.313Z,5.98
2017-03-26T23:33:34.337Z,5.96
2017-03-26T23:36:28.458Z,5.93
2017-03-26T23:39:22.518Z,5.91
2017-03-26T23:42:16.469Z,5.88
2017-03-26T23:45:10.492Z,5.84
2017-03-26T23:48:04.475Z,5.80
2017-03-26T23:53:52.532Z,5.74
2017-03-26T23:56:46.533Z,5.70
2017-03-26T23:59:41.465Z,5.68
